Time;durP1;ratioP1;P1;durP2;ratioP2;P2;SDS_P1;SDS_P2;PMS_P1;PMS_P2;Temp;Humidity;BMP_temperature;BMP_pressure;BME280_temperature;BME280_humidity;BME280_pressure;Samples;Min_cycle;Max_cycle;Signal;HPM_P1;HPM_P2
2023/03/23 00:02:11;;;;;;;5.23;2.27;;;;;;;10.90;100.00;100169.78;5212044;28;20113;-77
2023/03/23 00:04:42;;;;;;;4.80;2.53;;;;;;;10.89;100.00;100165.50;5227009;28;20029;-77
2023/03/23 00:07:21;;;;;;;5.17;2.67;;;;;;;10.89;100.00;100163.72;5232275;28;20025;-77
2023/03/23 00:09:53;;;;;;;7.70;3.00;;;;;;;10.96;100.00;100148.38;5232601;28;20128;-77
2023/03/23 00:12:33;;;;;;;8.77;3.60;;;;;;;10.96;100.00;100147.56;5232588;28;20111;-77
2023/03/23 00:15:12;;;;;;;5.40;3.10;;;;;;;10.92;100.00;100154.81;5223412;28;20014;-77
2023/03/23 00:17:44;;;;;;;6.33;2.70;;;;;;;10.89;100.00;100174.19;5212282;28;20026;-77
2023/03/23 00:20:16;;;;;;;10.83;3.43;;;;;;;10.92;100.00;100167.91;5211722;28;20022;-77
2023/03/23 00:22:47;;;;;;;5.87;3.03;;;;;;;10.97;100.00;100152.69;5212523;28;20028;-77
2023/03/23 00:25:18;;;;;;;5.50;3.07;;;;;;;10.94;100.00;100128.50;5211877;28;20428;-77
2023/03/23 00:27:50;;;;;;;4.47;2.77;;;;;;;10.88;100.00;100135.84;5223773;28;20107;-76
2023/03/23 00:30:21;;;;;;;5.87;2.87;;;;;;;10.94;100.00;100160.78;5231719;28;20028;-77
2023/03/23 00:32:53;;;;;;;6.97;3.17;;;;;;;10.95;100.00;100156.34;5232463;28;20045;-77
2023/03/23 00:35:25;;;;;;;4.80;3.60;;;;;;;11.04;100.00;100170.56;5232761;28;20021;-78
2023/03/23 00:37:58;;;;;;;6.97;2.97;;;;;;;10.98;100.00;100145.63;5232491;28;20556;-78
2023/03/23 00:40:30;;;;;;;4.83;2.83;;;;;;;11.08;100.00;100158.94;5232881;28;20026;-78
2023/03/23 00:43:03;;;;;;;6.13;2.97;;;;;;;11.06;100.00;100172.16;5232407;28;20029;-78
2023/03/23 00:45:36;;;;;;;6.20;3.60;;;;;;;11.16;100.00;100161.81;5231575;28;20108;-78
2023/03/23 00:48:07;;;;;;;4.57;2.87;;;;;;;11.08;100.00;100157.13;5232281;28;20024;-78
2023/03/23 00:50:39;;;;;;;6.90;3.57;;;;;;;11.08;100.00;100141.41;5230340;28;20029;-78
2023/03/23 00:53:11;;;;;;;5.43;3.33;;;;;;;11.00;100.00;100128.88;5232468;28;20392;-78
2023/03/23 00:55:43;;;;;;;4.43;2.93;;;;;;;11.05;100.00;100139.00;5231482;28;20041;-78
2023/03/23 00:58:16;;;;;;;5.73;3.17;;;;;;;11.02;100.00;100126.13;5211806;28;20026;-77
2023/03/23 01:00:47;;;;;;;6.37;2.97;;;;;;;11.13;100.00;100144.53;5216653;28;20074;-78
2023/03/23 01:03:18;;;;;;;5.87;3.37;;;;;;;11.09;100.00;100131.75;5232295;28;20104;-78
2023/03/23 01:05:51;;;;;;;7.30;3.50;;;;;;;11.05;100.00;100128.53;5230680;28;20025;-78
2023/03/23 01:08:24;;;;;;;4.93;2.87;;;;;;;11.06;100.00;100124.97;5232147;28;20021;-78
2023/03/23 01:11:05;;;;;;;3.90;2.97;;;;;;;11.09;100.00;100129.97;5230544;28;20124;-78
2023/03/23 01:13:36;;;;;;;8.40;4.03;;;;;;;10.98;100.00;100108.97;5232317;28;20038;-78
2023/03/23 01:16:08;;;;;;;5.87;3.00;;;;;;;11.09;100.00;100093.28;5230767;28;20029;-78
2023/03/23 01:18:40;;;;;;;7.00;3.63;;;;;;;11.06;100.00;100096.16;5230439;28;20044;-78
2023/03/23 01:21:15;;;;;;;4.20;2.93;;;;;;;11.08;100.00;100103.91;5230688;28;20021;-78
2023/03/23 01:23:47;;;;;;;6.70;3.80;;;;;;;11.05;100.00;100102.31;5232143;28;20037;-76
2023/03/23 01:26:22;;;;;;;3.73;2.63;;;;;;;11.06;100.00;100104.00;5229968;28;20083;-77
2023/03/23 01:28:54;;;;;;;5.50;3.30;;;;;;;11.04;100.00;100095.41;5230644;28;20033;-77
2023/03/23 01:31:26;;;;;;;5.90;3.63;;;;;;;11.10;100.00;100092.34;5231862;28;20029;-77
2023/03/23 01:33:57;;;;;;;4.13;3.07;;;;;;;11.05;100.00;100078.75;5233822;28;20225;-76
2023/03/23 01:36:32;;;;;;;6.37;3.57;;;;;;;11.17;100.00;100097.13;5220466;28;20022;-76
2023/03/23 01:39:05;;;;;;;7.07;3.20;;;;;;;11.10;100.00;100102.81;5216410;28;20017;-76
2023/03/23 01:41:36;;;;;;;4.50;3.40;;;;;;;11.01;100.00;100085.19;5234517;28;20033;-77
2023/03/23 01:44:30;;;;;;;4.93;3.10;;;;;;;11.13;100.00;100092.13;5234585;28;20115;-77
2023/03/23 01:47:02;;;;;;;6.53;3.00;;;;;;;11.21;100.00;100102.03;5235223;28;20031;-77
2023/03/23 01:49:38;;;;;;;3.53;3.10;;;;;;;11.08;100.00;100094.22;5235482;28;20368;-77
2023/03/23 01:52:26;;;;;;;6.17;3.20;;;;;;;11.22;100.00;100110.72;5225614;28;20087;-77
2023/03/23 01:54:58;;;;;;;6.23;3.33;;;;;;;11.22;100.00;100100.25;5214628;28;20053;-77
2023/03/23 01:57:31;;;;;;;5.07;3.13;;;;;;;11.24;100.00;100098.34;5214706;28;20661;-77
2023/03/23 02:00:10;;;;;;;4.70;3.20;;;;;;;11.23;100.00;100078.31;5212466;28;20021;-77
2023/03/23 02:02:44;;;;;;;4.87;3.03;;;;;;;11.19;100.00;100069.03;5213647;28;20026;-77
2023/03/23 02:05:31;;;;;;;6.63;2.87;;;;;;;11.23;100.00;100070.47;5212900;28;20450;-77
2023/03/23 02:08:05;;;;;;;4.33;3.37;;;;;;;11.16;100.00;100053.53;5214619;28;20264;-76
2023/03/23 02:10:37;;;;;;;5.45;3.20;;;;;;;11.22;100.00;100068.78;5214159;28;20036;-76
2023/03/23 02:13:11;;;;;;;4.97;3.07;;;;;;;11.27;100.00;100064.03;5214076;28;20049;-77
2023/03/23 02:15:55;;;;;;;6.15;3.42;;;;;;;11.33;100.00;100052.25;5214011;28;20486;-77
2023/03/23 02:18:47;;;;;;;7.07;3.22;;;;;;;11.15;100.00;100025.66;5214240;28;20053;-77
2023/03/23 02:21:27;;;;;;;4.60;3.17;;;;;;;11.30;100.00;100055.09;5213823;28;20030;-77
2023/03/23 02:24:37;;;;;;;5.77;3.87;;;;;;;11.33;100.00;100053.09;5214368;28;20033;-76
2023/03/23 02:28:02;;;;;;;6.73;3.30;;;;;;;11.36;100.00;100052.03;5205766;28;20371;-77
2023/03/23 02:30:45;;;;;;;5.70;3.40;;;;;;;11.36;100.00;100059.91;5233519;28;20025;-77
2023/03/23 02:33:44;;;;;;;7.57;3.20;;;;;;;11.18;100.00;100009.69;5233500;28;20029;-78
2023/03/23 02:36:46;;;;;;;6.20;3.20;;;;;;;11.36;100.00;100049.41;5234596;28;20044;-78
2023/03/23 02:39:17;;;;;;;4.60;2.87;;;;;;;11.35;100.00;100043.31;5233844;28;20041;-76
2023/03/23 02:42:01;;;;;;;4.57;2.57;;;;;;;11.36;100.00;100039.72;5232627;28;20576;-77
2023/03/23 02:44:37;;;;;;;4.70;3.07;;;;;;;11.32;100.00;100040.94;5233537;28;20045;-77
2023/03/23 02:47:17;;;;;;;5.03;3.03;;;;;;;11.40;100.00;100039.53;5249598;28;20066;-77
2023/03/23 02:49:53;;;;;;;4.57;3.50;;;;;;;11.32;100.00;100032.22;5231073;28;20018;-77
2023/03/23 02:52:29;;;;;;;4.77;3.20;;;;;;;11.30;100.00;100042.84;5213526;28;20030;-77
2023/03/23 02:55:02;;;;;;;4.57;2.87;;;;;;;11.33;100.00;100053.09;5213148;28;20042;-77
2023/03/23 02:57:35;;;;;;;6.27;3.07;;;;;;;11.35;100.00;100040.69;5213882;28;20030;-77
2023/03/23 03:00:10;;;;;;;5.80;3.23;;;;;;;11.36;100.00;100044.97;5212737;28;20417;-77
2023/03/23 03:02:54;;;;;;;4.43;2.53;;;;;;;11.42;100.00;100037.59;5223004;28;20542;-78
2023/03/23 03:05:59;;;;;;;6.18;3.03;;;;;;;11.48;100.00;100051.06;5232369;28;20029;-78
2023/03/23 03:08:39;;;;;;;3.60;2.87;;;;;;;11.60;100.00;100048.47;5233993;28;20057;-78
2023/03/23 03:11:16;;;;;;;5.97;3.10;;;;;;;11.52;100.00;100051.66;5233432;28;20304;-77
2023/03/23 03:14:05;;;;;;;4.87;2.90;;;;;;;11.45;100.00;100059.19;5232973;28;20083;-77
2023/03/23 03:16:45;;;;;;;5.70;2.63;;;;;;;11.53;100.00;100048.13;5234047;28;20018;-77
2023/03/23 03:19:25;;;;;;;3.47;2.43;;;;;;;11.51;100.00;100050.00;5231709;28;20098;-77
2023/03/23 03:21:58;;;;;;;4.87;2.97;;;;;;;11.52;100.00;100043.81;5213166;28;20124;-77
2023/03/23 03:24:31;;;;;;;5.45;3.08;;;;;;;11.47;100.00;100049.41;5220055;28;21260;-78
2023/03/23 03:27:09;;;;;;;5.77;2.80;;;;;;;11.46;100.00;100060.00;5233501;28;20750;-77
2023/03/23 03:29:45;;;;;;;4.00;3.00;;;;;;;11.46;100.00;100046.91;5232676;28;20477;-77
2023/03/23 03:32:22;;;;;;;4.90;2.90;;;;;;;11.42;100.00;100037.59;5233792;28;20048;-77
2023/03/23 03:34:53;;;;;;;5.80;2.80;;;;;;;11.41;100.00;100046.44;5233294;28;20488;-77
2023/03/23 03:37:26;;;;;;;4.97;2.40;;;;;;;11.42;100.00;100053.31;5233234;28;20032;-77
2023/03/23 03:39:57;;;;;;;7.10;2.87;;;;;;;11.57;100.00;100054.78;5230867;28;20025;-77
2023/03/23 03:42:28;;;;;;;4.73;2.77;;;;;;;11.48;100.00;100058.94;5233521;28;20504;-77
2023/03/23 03:45:00;;;;;;;4.03;2.70;;;;;;;11.46;100.00;100058.25;5232337;28;20037;-76
2023/03/23 03:47:31;;;;;;;6.40;2.93;;;;;;;11.50;100.00;100056.22;5232747;28;20057;-76
2023/03/23 03:50:03;;;;;;;7.03;2.60;;;;;;;11.55;100.00;100051.47;5233096;28;20033;-77
2023/03/23 03:52:35;;;;;;;4.40;2.63;;;;;;;11.44;100.00;100035.69;5232671;28;20031;-76
2023/03/23 03:55:08;;;;;;;5.20;2.40;;;;;;;11.45;100.00;100047.88;5232563;28;20033;-77
2023/03/23 03:57:41;;;;;;;6.33;2.57;;;;;;;11.47;100.00;100054.66;5232455;28;20034;-78
2023/03/23 04:00:16;;;;;;;9.83;3.00;;;;;;;11.39;100.00;100036.06;5231052;28;20515;-78
2023/03/23 04:02:53;;;;;;;6.73;2.60;;;;;;;11.55;100.00;100069.81;5231445;28;20025;-78
2023/03/23 04:05:25;;;;;;;4.87;2.30;;;;;;;11.66;100.00;100070.78;5247648;28;20033;-77
2023/03/23 04:08:01;;;;;;;6.60;2.83;;;;;;;11.43;100.00;100057.63;5232042;28;20099;-77
2023/03/23 04:10:33;;;;;;;7.83;2.40;;;;;;;11.46;100.00;100057.41;5231239;28;20689;-77
2023/03/23 04:13:04;;;;;;;6.07;2.50;;;;;;;11.59;100.00;100065.97;5231191;28;20052;-77
2023/03/23 04:15:35;;;;;;;12.33;2.97;;;;;;;11.46;100.00;100067.88;5231728;28;20465;-78
2023/03/23 04:18:08;;;;;;;7.73;2.30;;;;;;;11.43;100.00;100066.31;5232570;28;20610;-77
2023/03/23 04:20:39;;;;;;;7.17;2.13;;;;;;;11.57;100.00;100081.00;5232289;28;20033;-78
2023/03/23 04:23:11;;;;;;;6.70;2.60;;;;;;;11.52;100.00;100074.47;5227079;28;20029;-78
2023/03/23 04:25:43;;;;;;;5.93;2.10;;;;;;;11.50;100.00;100071.94;5223985;28;20037;-78
2023/03/23 04:28:18;;;;;;;6.13;2.27;;;;;;;11.43;100.00;100057.63;5230034;28;20040;-77
2023/03/23 04:30:54;;;;;;;6.87;2.47;;;;;;;11.52;100.00;100084.94;5232724;28;20061;-76
2023/03/23 04:33:27;;;;;;;6.70;2.50;;;;;;;11.55;100.00;100085.56;5232243;28;20044;-78
2023/03/23 04:36:00;;;;;;;7.60;2.00;;;;;;;11.44;100.00;100073.25;5231212;28;20042;-78
2023/03/23 04:38:33;;;;;;;7.53;1.90;;;;;;;11.62;100.00;100091.16;5232195;28;20029;-78
2023/03/23 04:41:05;;;;;;;8.17;2.27;;;;;;;11.64;100.00;100083.16;5230992;28;20025;-78
2023/03/23 04:43:41;;;;;;;9.30;2.43;;;;;;;11.54;100.00;100089.09;5219986;28;20033;-78
2023/03/23 04:46:15;;;;;;;8.57;3.07;;;;;;;11.47;100.00;100085.28;5212890;28;20421;-78
2023/03/23 04:48:46;;;;;;;9.88;2.60;;;;;;;11.55;100.00;100089.94;5232760;28;20033;-77
2023/03/23 04:51:18;;;;;;;6.87;1.90;;;;;;;11.54;100.00;100088.25;5232376;28;20049;-76
2023/03/23 04:53:49;;;;;;;9.27;2.63;;;;;;;11.51;100.00;100078.84;5232636;28;20377;-77
2023/03/23 04:56:20;;;;;;;6.90;2.13;;;;;;;11.52;100.00;100088.38;5232143;28;20026;-76
2023/03/23 04:58:52;;;;;;;8.70;2.27;;;;;;;11.45;100.00;100081.97;5232002;28;20104;-77
2023/03/23 05:01:23;;;;;;;7.27;3.27;;;;;;;11.60;100.00;100083.41;5227805;28;20104;-77
2023/03/23 05:03:55;;;;;;;6.30;1.77;;;;;;;11.61;100.00;100103.44;5231296;28;20036;-77
2023/03/23 05:06:26;;;;;;;7.83;2.30;;;;;;;11.58;100.00;100090.56;5231843;28;20029;-78
2023/03/23 05:08:58;;;;;;;9.63;2.43;;;;;;;11.48;100.00;100095.66;5234871;28;20605;-78
2023/03/23 05:11:29;;;;;;;7.80;1.80;;;;;;;11.47;100.00;100077.41;5236635;28;20049;-79
2023/03/23 05:14:00;;;;;;;6.80;1.70;;;;;;;11.55;100.00;100100.44;5235777;28;20043;-76
2023/03/23 05:16:32;;;;;;;5.77;2.10;;;;;;;11.44;100.00;100099.47;5236488;28;20043;-75
2023/03/23 05:19:04;;;;;;;9.37;2.30;;;;;;;11.42;100.00;100079.53;5234569;28;20114;-76
2023/03/23 05:21:36;;;;;;;5.70;1.90;;;;;;;11.56;100.00;100097.69;5234400;28;20095;-76
2023/03/23 05:24:08;;;;;;;5.23;2.30;;;;;;;11.37;100.00;100078.13;5235985;28;20472;-76
2023/03/23 05:26:39;;;;;;;5.60;2.20;;;;;;;11.41;100.00;100083.97;5236361;28;20036;-75
2023/03/23 05:29:10;;;;;;;6.37;2.07;;;;;;;11.54;100.00;100101.38;5224256;28;20025;-76
2023/03/23 05:31:42;;;;;;;6.87;2.30;;;;;;;11.42;100.00;100105.75;5216129;28;20036;-75
2023/03/23 05:34:13;;;;;;;7.83;2.07;;;;;;;11.43;100.00;100112.69;5217245;28;20037;-75
2023/03/23 05:36:45;;;;;;;6.13;1.97;;;;;;;11.42;100.00;100109.22;5217136;28;20057;-75
2023/03/23 05:39:17;;;;;;;9.87;2.30;;;;;;;11.34;100.00;100104.59;5217208;28;20132;-75
2023/03/23 05:41:48;;;;;;;7.17;2.30;;;;;;;11.40;100.00;100102.44;5229266;28;20148;-75
2023/03/23 05:44:20;;;;;;;9.07;2.70;;;;;;;11.33;100.00;100108.13;5236710;28;20331;-75
2023/03/23 05:46:51;;;;;;;9.93;3.07;;;;;;;11.29;100.00;100106.72;5236522;28;20037;-76
2023/03/23 05:49:24;;;;;;;6.27;2.13;;;;;;;11.29;100.00;100113.72;5235409;28;20367;-76
2023/03/23 05:51:55;;;;;;;7.70;2.33;;;;;;;11.20;100.00;100113.47;5234700;28;20033;-76
2023/03/23 05:54:26;;;;;;;6.73;2.33;;;;;;;11.33;100.00;100108.13;5236078;28;20465;-76
2023/03/23 05:56:59;;;;;;;11.57;2.93;;;;;;;11.22;100.00;100115.97;5233797;28;20030;-75
2023/03/23 05:59:31;;;;;;;8.60;2.30;;;;;;;11.28;100.00;100105.03;5230795;28;20026;-76
2023/03/23 06:02:04;;;;;;;10.20;2.40;;;;;;;11.24;100.00;100108.84;5238904;28;20029;-77
2023/03/23 06:04:37;;;;;;;6.63;2.30;;;;;;;11.13;100.00;100105.22;5237127;28;20033;-74
2023/03/23 06:07:14;;;;;;;15.18;3.63;;;;;;;11.14;100.00;100103.44;5237885;28;20416;-76
2023/03/23 06:09:45;;;;;;;8.20;2.30;;;;;;;11.19;100.00;100097.88;5238681;28;20402;-77
2023/03/23 06:12:20;;;;;;;6.50;2.70;;;;;;;11.23;100.00;100109.78;5239586;28;20064;-77
2023/03/23 06:14:51;;;;;;;7.88;3.13;;;;;;;11.26;100.00;100120.03;5219393;28;20427;-76
2023/03/23 06:17:22;;;;;;;9.93;2.30;;;;;;;11.22;100.00;100122.03;5223943;28;20108;-76
2023/03/23 06:19:54;;;;;;;9.70;2.10;;;;;;;11.27;100.00;100133.97;5226473;28;20029;-76
2023/03/23 06:22:26;;;;;;;7.47;2.30;;;;;;;11.34;100.00;100136.03;5219893;28;20037;-76
2023/03/23 06:24:57;;;;;;;13.60;2.90;;;;;;;11.33;100.00;100123.88;5224633;28;20029;-76
2023/03/23 06:27:30;;;;;;;11.47;2.63;;;;;;;11.36;100.00;100144.59;5235632;28;20702;-76
2023/03/23 06:30:03;;;;;;;7.90;2.43;;;;;;;11.21;100.00;100119.53;5235903;28;20025;-76
2023/03/23 06:32:35;;;;;;;9.37;2.27;;;;;;;11.41;100.00;100159.16;5215755;28;20033;-77
2023/03/23 06:35:09;;;;;;;6.90;2.00;;;;;;;11.38;100.00;100149.72;5232062;28;20068;-76
2023/03/23 06:37:40;;;;;;;11.63;3.47;;;;;;;11.42;100.00;100156.41;5235227;28;20036;-77
2023/03/23 06:40:11;;;;;;;6.87;2.50;;;;;;;11.20;100.00;100117.88;5235009;28;20028;-77
2023/03/23 06:42:43;;;;;;;7.83;2.10;;;;;;;11.35;100.00;100144.72;5234483;28;20013;-76
2023/03/23 06:45:14;;;;;;;12.73;3.03;;;;;;;11.46;100.00;100173.59;5234814;28;20167;-77
2023/03/23 06:47:48;;;;;;;9.17;2.53;;;;;;;11.47;100.00;100172.66;5235618;28;20075;-77
2023/03/23 06:50:19;;;;;;;6.95;2.38;;;;;;;11.34;100.00;100170.13;5232281;28;20068;-77
2023/03/23 06:52:51;;;;;;;11.33;2.17;;;;;;;11.35;100.00;100163.06;5224975;28;20034;-77
2023/03/23 06:55:22;;;;;;;12.13;3.73;;;;;;;11.48;100.00;100183.97;5235031;28;20079;-77
2023/03/23 06:58:02;;;;;;;7.03;2.40;;;;;;;11.40;100.00;100194.22;5233728;28;20079;-77
2023/03/23 07:00:34;;;;;;;8.87;3.17;;;;;;;11.52;100.00;100201.13;5234736;28;20098;-77
2023/03/23 07:03:06;;;;;;;11.50;2.57;;;;;;;11.42;100.00;100197.53;5233693;28;20104;-78
2023/03/23 07:05:38;;;;;;;8.30;2.33;;;;;;;11.40;100.00;100192.41;5229545;28;20095;-77
2023/03/23 07:08:09;;;;;;;14.47;2.77;;;;;;;11.43;100.00;100186.94;5247930;28;20029;-76
2023/03/23 07:10:40;;;;;;;7.40;1.40;;;;;;;11.16;100.00;100164.44;5235131;28;20472;-75
2023/03/23 07:13:12;;;;;;;11.03;3.03;;;;;;;11.08;100.00;100195.63;5231596;28;20045;-76
2023/03/23 07:15:44;;;;;;;11.43;2.90;;;;;;;11.09;100.00;100213.00;5230950;28;20075;-76
2023/03/23 07:18:15;;;;;;;7.90;2.50;;;;;;;10.91;100.00;100207.31;5227516;28;20088;-77
2023/03/23 07:20:48;;;;;;;10.67;2.83;;;;;;;10.88;100.00;100222.31;5232864;28;20064;-76
2023/03/23 07:23:20;;;;;;;10.32;2.75;;;;;;;10.70;100.00;100236.72;5233803;28;20354;-76
2023/03/23 07:25:52;;;;;;;7.90;2.10;;;;;;;10.70;100.00;100236.72;5233903;28;20075;-76
2023/03/23 07:28:23;;;;;;;10.93;2.87;;;;;;;10.69;100.00;100235.84;5232075;28;20029;-76
2023/03/23 07:30:55;;;;;;;7.93;2.70;;;;;;;10.60;100.00;100232.09;5217861;28;20029;-76
2023/03/23 07:33:26;;;;;;;8.03;2.20;;;;;;;10.61;100.00;100257.34;5230784;28;20029;-76
2023/03/23 07:36:00;;;;;;;9.83;2.97;;;;;;;10.58;100.00;100251.47;5232472;28;20112;-75
2023/03/23 07:38:31;;;;;;;14.23;3.40;;;;;;;10.48;100.00;100267.00;5232063;28;20037;-76
2023/03/23 07:41:03;;;;;;;7.90;1.97;;;;;;;10.33;100.00;100233.06;5238182;28;20032;-77
2023/03/23 07:43:35;;;;;;;5.37;1.03;;;;;;;10.31;100.00;100221.84;5224919;28;20562;-75
2023/03/23 07:46:06;;;;;;;6.40;2.03;;;;;;;10.21;100.00;100223.44;5224205;28;20083;-75
2023/03/23 07:48:38;;;;;;;7.90;1.53;;;;;;;10.38;100.00;100238.81;5226785;28;20025;-76
2023/03/23 07:51:10;;;;;;;4.17;1.27;;;;;;;10.35;100.00;100243.41;5224661;28;20025;-78
2023/03/23 07:53:44;;;;;;;7.63;1.90;;;;;;;10.26;100.00;100245.69;5226061;28;20021;-77
2023/03/23 07:56:18;;;;;;;5.90;1.92;;;;;;;10.23;100.00;100239.84;5232188;28;20086;-77
2023/03/23 07:58:51;;;;;;;6.53;1.38;;;;;;;10.24;100.00;100246.75;5232554;28;20059;-77
2023/03/23 08:01:23;;;;;;;3.47;1.57;;;;;;;10.24;100.00;100252.00;5233098;28;20489;-77
2023/03/23 08:03:57;;;;;;;5.10;2.03;;;;;;;10.20;100.00;100268.84;5232325;28;20029;-76
2023/03/23 08:06:28;;;;;;;4.30;1.30;;;;;;;10.13;100.00;100263.19;5233185;28;20059;-76
2023/03/23 08:08:59;;;;;;;5.60;1.40;;;;;;;10.13;100.00;100271.03;5233040;28;20025;-76
2023/03/23 08:11:31;;;;;;;6.93;1.77;;;;;;;10.05;100.00;100279.41;5233811;28;20651;-77
2023/03/23 08:14:03;;;;;;;3.20;1.00;;;;;;;10.00;100.00;100284.13;5231125;28;20029;-75
2023/03/23 08:16:35;;;;;;;5.33;1.53;;;;;;;9.93;100.00;100287.13;5232291;28;20528;-75
2023/03/23 08:19:08;;;;;;;5.67;1.73;;;;;;;9.90;100.00;100284.72;5231751;28;20018;-75
2023/03/23 08:21:39;;;;;;;3.17;1.00;;;;;;;9.97;100.00;100272.06;5233300;28;20071;-75
2023/03/23 08:24:11;;;;;;;4.60;1.50;;;;;;;10.00;100.00;100292.78;5232465;28;20489;-75
2023/03/23 08:26:42;;;;;;;3.00;0.90;;;;;;;9.92;100.00;100285.47;5231599;28;20641;-76
2023/03/23 08:29:14;;;;;;;5.70;1.23;;;;;;;9.96;100.00;100280.88;5231760;28;20066;-76
2023/03/23 08:31:45;;;;;;;5.03;1.23;;;;;;;9.96;100.00;100285.25;5232704;28;20107;-76
2023/03/23 08:34:17;;;;;;;4.13;1.20;;;;;;;9.91;100.00;100268.06;5233297;28;20850;-76
2023/03/23 08:36:51;;;;;;;3.57;1.33;;;;;;;10.02;100.00;100285.66;5232190;28;20108;-76
2023/03/23 08:39:23;;;;;;;3.67;1.13;;;;;;;10.01;100.00;100280.53;5222015;28;20477;-76
2023/03/23 08:41:54;;;;;;;4.80;1.10;;;;;;;9.94;100.00;100274.88;5230063;28;20068;-76
2023/03/23 08:44:37;;;;;;;4.00;1.20;;;;;;;10.07;100.00;100277.50;5235333;28;20481;-75
2023/03/23 08:47:09;;;;;;;7.13;2.60;;;;;;;10.07;100.00;100285.34;5236193;28;20029;-76
2023/03/23 08:49:42;;;;;;;2.40;1.00;;;;;;;10.13;100.00;100292.81;5236463;28;20033;-76
2023/03/23 08:52:13;;;;;;;5.40;1.20;;;;;;;10.07;100.00;100287.97;5235424;28;20125;-76
2023/03/23 08:54:47;;;;;;;5.03;1.47;;;;;;;10.22;100.00;100295.75;5236766;28;20116;-75
2023/03/23 08:57:18;;;;;;;5.60;1.50;;;;;;;10.19;100.00;100295.97;5231461;28;20088;-75
2023/03/23 08:59:49;;;;;;;4.77;1.40;;;;;;;10.09;100.00;100280.88;5234082;28;22161;-76
2023/03/23 09:02:23;;;;;;;3.03;1.20;;;;;;;10.25;100.00;100308.63;5235970;28;20037;-75
2023/03/23 09:04:54;;;;;;;3.10;1.30;;;;;;;10.10;100.00;100298.25;5236350;28;20071;-76
2023/03/23 09:07:26;;;;;;;5.13;1.20;;;;;;;10.20;100.00;100302.84;5234846;28;20025;-76
2023/03/23 09:09:57;;;;;;;5.13;1.63;;;;;;;10.22;100.00;100280.91;5250524;28;20728;-76
2023/03/23 09:12:29;;;;;;;3.77;1.53;;;;;;;10.71;100.00;100270.66;5234750;28;20116;-76
2023/03/23 09:15:08;;;;;;;6.93;1.33;;;;;;;11.08;100.00;100261.94;5235887;28;20021;-75
2023/03/23 09:17:42;;;;;;;5.20;1.63;;;;;;;11.03;100.00;100273.72;5219451;28;20029;-75
2023/03/23 09:20:20;;;;;;;6.47;1.40;;;;;;;11.12;100.00;100294.84;5234963;28;20480;-75
2023/03/23 09:22:54;;;;;;;4.73;1.23;;;;;;;11.13;100.00;100303.56;5230797;28;20700;-74
2023/03/23 09:25:27;;;;;;;7.18;1.73;;;;;;;11.04;100.00;100307.69;5235695;28;20112;-75
2023/03/23 09:27:58;;;;;;;5.20;0.93;;;;;;;10.94;100.00;100291.78;5234626;28;20025;-74
2023/03/23 09:30:33;;;;;;;3.60;1.00;;;;;;;11.00;100.00;100291.31;5236092;28;20662;-74
2023/03/23 09:33:05;;;;;;;5.80;1.50;;;;;;;10.76;100.00;100294.72;5235251;28;20063;-75
2023/03/23 09:35:38;;;;;;;4.37;1.47;;;;;;;10.92;100.00;100288.41;5235575;28;20045;-75
2023/03/23 09:38:13;;;;;;;4.53;1.50;;;;;;;10.97;100.00;100296.78;5235727;28;20132;-75
2023/03/23 09:41:01;;;;;;;4.90;1.40;;;;;;;11.03;100.00;100305.97;5235482;28;20444;-74
2023/03/23 09:43:57;;;;;;;5.90;1.53;;;;;;;11.35;100.00;100305.47;5234387;28;20108;-74
2023/03/23 09:47:10;;;;;;;8.27;2.07;;;;;;;11.92;100.00;100310.13;5234373;28;20075;-74
2023/03/23 09:50:07;;;;;;;4.37;1.53;;;;;;;12.57;100.00;100285.22;5235184;28;20056;-75
2023/03/23 09:52:47;;;;;;;6.60;1.83;;;;;;;13.51;100.00;100305.06;5229536;28;20042;-75
2023/03/23 09:55:20;;;;;;;4.77;1.77;;;;;;;14.71;100.00;100297.00;5234593;28;20026;-75
2023/03/23 09:57:58;;;;;;;3.83;1.43;;;;;;;16.02;100.00;100299.72;5234532;28;20021;-75
2023/03/23 10:00:35;;;;;;;4.43;1.80;;;;;;;16.92;100.00;100299.28;5235279;28;20028;-75
2023/03/23 10:03:18;;;;;;;5.17;1.37;;;;;;;17.79;100.00;100307.75;5235016;28;20029;-74
2023/03/23 10:05:52;;;;;;;4.13;1.23;;;;;;;18.88;100.00;100303.97;5235104;28;20022;-75
2023/03/23 10:08:31;;;;;;;6.22;1.25;;;;;;;19.08;100.00;100299.22;5235008;28;20091;-75
2023/03/23 10:11:04;;;;;;;4.40;1.53;;;;;;;19.92;100.00;100321.41;5233870;28;20021;-75
2023/03/23 10:13:45;;;;;;;5.80;1.17;;;;;;;20.42;100.00;100320.56;5234496;28;20033;-76
2023/03/23 10:16:21;;;;;;;4.35;1.42;;;;;;;20.30;100.00;100314.75;5235433;28;20029;-75
2023/03/23 10:19:10;;;;;;;4.18;1.33;;;;;;;20.47;100.00;100314.72;5234432;28;20132;-75
2023/03/23 10:21:50;;;;;;;3.45;1.23;;;;;;;19.99;100.00;100313.59;5235077;28;20029;-75
2023/03/23 10:24:31;;;;;;;4.60;1.42;;;;;;;20.61;100.00;100331.78;5233604;28;20100;-75
2023/03/23 10:27:18;;;;;;;6.32;1.83;;;;;;;20.91;100.00;100313.38;5234384;28;20101;-75
2023/03/23 10:29:55;;;;;;;3.45;1.42;;;;;;;21.56;100.00;100336.31;5234436;28;20053;-75
2023/03/23 10:33:10;;;;;;;5.20;1.80;;;;;;;21.16;100.00;100329.25;5234766;28;20056;-75
2023/03/23 10:36:26;;;;;;;3.67;1.42;;;;;;;20.13;98.09;100336.03;5186516;28;20033;-75
2023/03/23 10:39:12;;;;;;;9.75;1.92;;;;;;;19.32;100.00;100328.69;5232505;28;20037;-75
2023/03/23 10:41:43;;;;;;;4.35;1.42;;;;;;;19.12;94.11;100336.06;5234236;28;20052;-75
2023/03/23 10:44:25;;;;;;;4.63;1.70;;;;;;;18.46;96.24;100318.84;5234563;28;20064;-75
2023/03/23 10:47:02;;;;;;;4.70;1.80;;;;;;;18.19;95.95;100344.50;5233955;28;20578;-74
2023/03/23 10:49:54;;;;;;;5.07;1.60;;;;;;;17.66;100.00;100332.00;5233964;28;20021;-75
2023/03/23 10:52:37;;;;;;;5.87;2.60;;;;;;;17.13;100.00;100324.69;5234061;28;20432;-75
2023/03/23 10:55:15;;;;;;;8.17;2.07;;;;;;;16.92;100.00;100336.31;5233933;28;20031;-76
2023/03/23 10:58:00;;;;;;;6.87;2.23;;;;;;;17.23;100.00;100332.53;5233402;28;20429;-76
2023/03/23 11:00:33;;;;;;;6.43;2.43;;;;;;;16.91;100.00;100324.03;5234153;28;20536;-74
2023/03/23 11:03:40;;;;;;;4.90;1.80;;;;;;;17.11;100.00;100321.34;5232257;28;20061;-74
2023/03/23 11:06:20;;;;;;;4.63;2.27;;;;;;;17.17;100.00;100322.56;5231426;28;20037;-74
2023/03/23 11:08:57;;;;;;;5.27;2.10;;;;;;;17.03;98.73;100318.56;5233436;28;20033;-74
2023/03/23 11:11:38;;;;;;;8.23;2.33;;;;;;;17.00;99.88;100313.59;5233744;28;20069;-74
2023/03/23 11:14:18;;;;;;;6.57;2.30;;;;;;;16.75;100.00;100311.47;5233067;28;20022;-74
2023/03/23 11:16:53;;;;;;;6.40;1.80;;;;;;;16.39;100.00;100303.41;5233484;28;20108;-74
2023/03/23 11:19:28;;;;;;;6.93;2.20;;;;;;;16.68;100.00;100316.50;5232456;28;20026;-75
2023/03/23 11:22:15;;;;;;;6.30;1.80;;;;;;;16.76;100.00;100326.34;5232992;28;20099;-75
2023/03/23 11:24:52;;;;;;;5.37;1.90;;;;;;;16.64;90.36;100323.06;5233471;28;20021;-75
2023/03/23 11:27:24;;;;;;;7.23;2.17;;;;;;;16.45;88.15;100316.88;5231922;28;20033;-74
2023/03/23 11:30:01;;;;;;;4.37;1.53;;;;;;;16.47;91.32;100331.72;5233400;28;20120;-74
2023/03/23 11:32:33;;;;;;;9.30;1.90;;;;;;;16.20;93.33;100326.22;5233323;28;20572;-75
2023/03/23 11:35:08;;;;;;;5.10;1.63;;;;;;;16.06;93.10;100325.69;5232864;28;20021;-75
2023/03/23 11:37:51;;;;;;;6.00;1.87;;;;;;;15.94;92.59;100340.84;5232551;28;20044;-75
2023/03/23 11:40:25;;;;;;;4.77;1.57;;;;;;;15.70;94.13;100336.81;5232798;28;20465;-75
2023/03/23 11:43:01;;;;;;;;;;;;;;;16.16;93.67;100343.34;5231472;28;20029;-75
2023/03/23 11:45:39;;;;;;;4.90;1.23;;;;;;;15.84;96.19;100345.28;5231811;28;20228;-76
2023/03/23 11:48:44;;;;;;;4.53;1.33;;;;;;;16.11;96.62;100335.81;5231772;28;20021;-75
2023/03/23 11:51:27;;;;;;;4.83;1.93;;;;;;;16.27;93.28;100334.41;5226315;28;20371;-76
2023/03/23 11:54:15;;;;;;;7.77;1.60;;;;;;;16.33;95.05;100345.28;5230846;28;20480;-75
2023/03/23 11:56:47;;;;;;;2.43;1.10;;;;;;;16.47;92.35;100335.22;5232472;28;20025;-75